createdAt,value
2022-12-22T00:01:29.191Z,100148.50
2022-12-22T00:04:14.917Z,100154.97
2022-12-22T00:07:00.874Z,100155.69
2022-12-22T00:09:47.506Z,100148.25
2022-12-22T00:12:34.547Z,100136.31
2022-12-22T00:15:19.865Z,100136.31
2022-12-22T00:18:05.097Z,100130.72
2022-12-22T00:20:50.657Z,100125.09
2022-12-22T00:23:35.862Z,100115.06
2022-12-22T00:26:22.971Z,100108.59
2022-12-22T00:29:08.654Z,100108.59
2022-12-22T00:31:53.935Z,100104.00
2022-12-22T00:34:40.879Z,100100.13
2022-12-22T00:37:30.349Z,100097.41
2022-12-22T00:40:16.471Z,100083.03
2022-12-22T00:43:02.992Z,100093.69
2022-12-22T00:45:49.200Z,100095.81
2022-12-22T00:48:39.566Z,100092.81
2022-12-22T00:51:25.841Z,100091.22
2022-12-22T00:54:11.208Z,100077.56
2022-12-22T00:56:56.228Z,100078.56
2022-12-22T00:59:42.726Z,100077.44
2022-12-22T01:02:28.111Z,100072.13
2022-12-22T01:05:13.239Z,100070.38
2022-12-22T01:07:59.069Z,100068.53
2022-12-22T01:10:45.147Z,100059.34
2022-12-22T01:13:31.412Z,100050.41
2022-12-22T01:16:18.434Z,100049.41
2022-12-22T01:19:03.583Z,100034.06
2022-12-22T01:21:49.407Z,100040.50
2022-12-22T01:24:36.575Z,100039.50
2022-12-22T01:27:22.782Z,100028.59
2022-12-22T01:30:08.027Z,100022.28
2022-12-22T01:32:54.520Z,100016.69
2022-12-22T01:35:42.334Z,100010.34
2022-12-22T01:38:27.986Z,99998.75
2022-12-22T01:41:15.297Z,100006.75
2022-12-22T01:44:01.175Z,100001.31
2022-12-22T01:46:48.463Z,99984.94
2022-12-22T01:49:39.877Z,99987.53
2022-12-22T01:52:29.620Z,99977.59
2022-12-22T01:55:20.009Z,99982.06
2022-12-22T01:58:05.552Z,99974.88
2022-12-22T02:00:50.803Z,99975.75
2022-12-22T02:03:37.879Z,99977.31
2022-12-22T02:06:37.748Z,99968.00
2022-12-22T02:09:38.541Z,99963.41
2022-12-22T02:12:29.802Z,99959.81
2022-12-22T02:15:23.582Z,99947.03
2022-12-22T02:18:21.009Z,99938.66
2022-12-22T02:21:10.867Z,99942.25
2022-12-22T02:24:09.650Z,99940.41
2022-12-22T02:27:01.083Z,99934.06
2022-12-22T02:29:49.608Z,99925.03
2022-12-22T02:32:34.948Z,99924.00
2022-12-22T02:35:20.392Z,99908.66
2022-12-22T02:38:11.917Z,99918.41
2022-12-22T02:41:06.151Z,99910.09
2022-12-22T02:44:08.330Z,99899.88
2022-12-22T02:47:00.373Z,99894.56
2022-12-22T02:49:52.377Z,99889.13
2022-12-22T02:52:43.854Z,99885.38
2022-12-22T02:55:29.640Z,99889.97
2022-12-22T02:58:18.025Z,99887.97
2022-12-22T03:01:05.083Z,99883.34
2022-12-22T03:03:50.856Z,99880.63
2022-12-22T03:06:36.388Z,99875.16
2022-12-22T03:09:22.383Z,99863.22
2022-12-22T03:12:07.868Z,99871.41
2022-12-22T03:14:53.123Z,99862.22
2022-12-22T03:17:39.908Z,99867.53
2022-12-22T03:20:26.630Z,99865.66
2022-12-22T03:23:11.918Z,99861.22
2022-12-22T03:25:52.538Z,99848.44
2022-12-22T03:28:21.993Z,99840.97
2022-12-22T03:31:01.137Z,99842.38
2022-12-22T03:33:32.390Z,99836.03
2022-12-22T03:36:01.247Z,99830.59
2022-12-22T03:38:29.753Z,99826.84
2022-12-22T03:40:57.623Z,99822.25
2022-12-22T03:43:43.693Z,99827.56
2022-12-22T03:46:30.430Z,99818.66
2022-12-22T03:49:12.642Z,99819.53
2022-12-22T03:51:43.538Z,99818.66
2022-12-22T03:54:12.719Z,99821.97
2022-12-22T03:56:41.248Z,99820.94
2022-12-22T03:59:09.674Z,99816.34
2022-12-22T04:01:42.696Z,99811.56
2022-12-22T04:04:14.049Z,99787.88
2022-12-22T04:06:43.222Z,99808.84
2022-12-22T04:09:11.203Z,99796.06
2022-12-22T04:11:56.674Z,99791.47
2022-12-22T04:14:31.355Z,99783.41
2022-12-22T04:17:01.875Z,99779.69
2022-12-22T04:19:31.011Z,99775.94
2022-12-22T04:21:58.963Z,99779.69
2022-12-22T04:24:26.889Z,99781.41
2022-12-22T04:26:54.940Z,99774.06
2022-12-22T04:29:22.744Z,99775.06
2022-12-22T04:31:50.744Z,99769.47
2022-12-22T04:34:18.557Z,99765.88
2022-12-22T04:36:47.810Z,99763.88
2022-12-22T04:39:15.588Z,99759.41
2022-12-22T04:41:44.646Z,99759.41
2022-12-22T04:44:12.477Z,99752.09
2022-12-22T04:46:40.377Z,99749.34
2022-12-22T04:49:08.297Z,99754.66
2022-12-22T04:51:36.106Z,99755.53
2022-12-22T04:54:05.322Z,99749.91
2022-12-22T04:56:33.122Z,99755.53
2022-12-22T04:59:01.240Z,99748.88
2022-12-22T05:01:29.301Z,99750.75
2022-12-22T05:03:57.154Z,99749.75
2022-12-22T05:06:24.961Z,99747.00
2022-12-22T05:08:53.000Z,99750.59
2022-12-22T05:11:22.438Z,99747.72
2022-12-22T05:13:50.200Z,99741.53
2022-12-22T05:16:18.756Z,99747.72
2022-12-22T05:18:47.005Z,99743.28
2022-12-22T05:21:17.448Z,99744.13
2022-12-22T05:23:45.887Z,99743.28
2022-12-22T05:26:15.467Z,99747.72
2022-12-22T05:28:46.177Z,99742.13
2022-12-22T05:31:17.360Z,99746.59
2022-12-22T05:33:45.323Z,99744.84
2022-12-22T05:36:13.095Z,99739.38
2022-12-22T05:38:41.276Z,99737.41
2022-12-22T05:41:09.544Z,99738.25
2022-12-22T05:43:37.949Z,99735.34
2022-12-22T05:46:09.771Z,99741.53
2022-12-22T05:48:39.791Z,99743.53
2022-12-22T05:51:08.922Z,99742.38
2022-12-22T05:53:37.097Z,99742.22
2022-12-22T05:56:05.602Z,99745.69
2022-12-22T05:58:33.931Z,99751.13
2022-12-22T06:01:02.281Z,99749.94
2022-12-22T06:03:31.624Z,99737.88
2022-12-22T06:05:59.800Z,99747.94
2022-12-22T06:08:28.235Z,99741.47
2022-12-22T06:10:57.061Z,99741.47
2022-12-22T06:13:25.586Z,99743.19
2022-12-22T06:15:53.471Z,99754.09
2022-12-22T06:18:21.569Z,99755.81
2022-12-22T06:20:52.386Z,99747.47
2022-12-22T06:23:20.303Z,99752.94
2022-12-22T06:25:55.304Z,99757.22
2022-12-22T06:28:23.340Z,99755.50
2022-12-22T06:30:51.136Z,99760.97
2022-12-22T06:33:19.054Z,99762.69
2022-12-22T06:35:50.769Z,99763.53
2022-12-22T06:38:23.006Z,99762.69
2022-12-22T06:40:50.779Z,99768.16
2022-12-22T06:43:17.578Z,99781.66
2022-12-22T06:45:45.630Z,99771.75
2022-12-22T06:48:18.729Z,99779.06
2022-12-22T06:50:47.185Z,99775.47
2022-12-22T06:53:15.123Z,99785.25
2022-12-22T06:55:44.416Z,99792.44
2022-12-22T06:58:12.219Z,99789.84
2022-12-22T07:00:40.127Z,99798.91
2022-12-22T07:03:08.161Z,99798.03
2022-12-22T07:05:36.165Z,99796.03
2022-12-22T07:08:08.464Z,99801.50
2022-12-22T07:10:54.781Z,99803.34
2022-12-22T07:13:24.496Z,99807.81
2022-12-22T07:16:00.068Z,99810.53
2022-12-22T07:18:30.459Z,99812.28
2022-12-22T07:20:58.547Z,99826.78
2022-12-22T07:23:27.019Z,99828.47
2022-12-22T07:25:54.908Z,99835.66
2022-12-22T07:28:24.223Z,99838.25
2022-12-22T07:30:52.960Z,99843.72
2022-12-22T07:33:20.870Z,99853.78
2022-12-22T07:35:48.732Z,99864.56
2022-12-22T07:38:16.535Z,99865.44
2022-12-22T07:40:47.966Z,99872.63
2022-12-22T07:43:18.526Z,99894.47
2022-12-22T07:45:47.651Z,99897.06
2022-12-22T07:48:29.402Z,99907.13
2022-12-22T07:51:04.250Z,99923.38
2022-12-22T07:53:32.229Z,99914.47
2022-12-22T07:56:03.780Z,99920.47
2022-12-22T07:58:31.992Z,99918.91
2022-12-22T08:01:02.501Z,99922.34
2022-12-22T08:03:30.531Z,99926.25
2022-12-22T08:05:58.294Z,99928.97
2022-12-22T08:08:26.236Z,99935.31
2022-12-22T08:10:54.084Z,99938.19
2022-12-22T08:13:21.957Z,99935.47
2022-12-22T08:15:49.808Z,99936.31
2022-12-22T08:18:19.021Z,99943.50
2022-12-22T08:20:50.645Z,99948.97
2022-12-22T08:23:18.548Z,99953.72
2022-12-22T08:25:48.791Z,99966.38
2022-12-22T08:28:17.930Z,99972.84
2022-12-22T08:30:47.105Z,99987.38
2022-12-22T08:33:15.198Z,99993.84
2022-12-22T08:35:44.649Z,99990.97
2022-12-22T08:38:14.063Z,100011.97
2022-12-22T08:40:45.102Z,100011.97
2022-12-22T08:43:13.535Z,100023.03
2022-12-22T08:45:42.587Z,100024.75
2022-12-22T08:48:10.508Z,100029.34
2022-12-22T08:50:38.264Z,100030.38
2022-12-22T08:53:18.831Z,100037.41
2022-12-22T08:55:57.602Z,100035.84
2022-12-22T08:58:25.455Z,100047.63
2022-12-22T09:00:53.270Z,100046.75
2022-12-22T09:03:21.094Z,100053.09
2022-12-22T09:05:48.940Z,100047.63
2022-12-22T09:08:18.069Z,100054.81
2022-12-22T09:10:45.895Z,100063.88
2022-12-22T09:13:13.698Z,100061.13
2022-12-22T09:15:41.528Z,100077.53
2022-12-22T09:18:09.336Z,100082.84
2022-12-22T09:20:37.293Z,100091.06
2022-12-22T09:23:05.093Z,100091.91
2022-12-22T09:25:35.986Z,100104.41
2022-12-22T09:28:04.016Z,100112.75
2022-12-22T09:30:31.818Z,100112.75
2022-12-22T09:32:59.777Z,100118.22
2022-12-22T09:35:27.491Z,100109.19
2022-12-22T09:37:55.269Z,100113.59
2022-12-22T09:40:24.718Z,100113.59
2022-12-22T09:42:54.194Z,100118.94
2022-12-22T09:45:22.135Z,100124.53
2022-12-22T09:47:53.775Z,100147.13
2022-12-22T09:50:24.320Z,100149.72
2022-12-22T09:52:54.996Z,100152.44
2022-12-22T09:55:38.549Z,100156.75
2022-12-22T09:58:23.965Z,100162.22
2022-12-22T10:01:01.654Z,100170.56
2022-12-22T10:03:36.157Z,100177.75
2022-12-22T10:06:12.115Z,100181.38
2022-12-22T10:08:41.255Z,100186.97
2022-12-22T10:11:13.435Z,100190.56
2022-12-22T10:13:43.074Z,100200.63
2022-12-22T10:16:22.544Z,100195.03
2022-12-22T10:19:00.034Z,100188.84
2022-12-22T10:21:30.100Z,100191.72
2022-12-22T10:23:57.955Z,100192.56
2022-12-22T10:26:30.880Z,100190.69
2022-12-22T10:29:04.733Z,100203.38
2022-12-22T10:31:34.982Z,100204.22
2022-12-22T10:34:13.707Z,100204.09
2022-12-22T10:36:43.236Z,100210.56
2022-12-22T10:39:12.201Z,100204.94
2022-12-22T10:41:45.762Z,100209.38
2022-12-22T10:44:24.366Z,100219.31
2022-12-22T10:46:54.219Z,100219.44
2022-12-22T10:49:24.249Z,100221.19
2022-12-22T10:51:55.367Z,100224.78
2022-12-22T10:54:36.030Z,100232.84
2022-12-22T10:57:07.529Z,100228.38
2022-12-22T10:59:50.085Z,100234.44
2022-12-22T11:02:31.826Z,100232.56
2022-12-22T11:05:06.440Z,100244.19
2022-12-22T11:07:36.718Z,100252.09
2022-12-22T11:10:16.606Z,100260.91
2022-12-22T11:12:57.438Z,100255.13
2022-12-22T11:15:35.734Z,100253.84
2022-12-22T11:18:14.800Z,100267.06
2022-12-22T11:20:53.000Z,100262.03
2022-12-22T11:23:30.688Z,100278.84
2022-12-22T11:26:08.530Z,100272.09
2022-12-22T11:28:52.425Z,100270.63
2022-12-22T11:31:40.166Z,100281.13
2022-12-22T11:34:23.214Z,100284.56
2022-12-22T11:36:58.389Z,100285.03
2022-12-22T11:39:37.908Z,100289.44
2022-12-22T11:42:22.197Z,100281.38
2022-12-22T11:45:01.092Z,100287.16
2022-12-22T11:47:41.513Z,100288.16
2022-12-22T11:50:58.555Z,100292.44
2022-12-22T11:53:51.265Z,100302.66
2022-12-22T11:56:24.221Z,100310.09
2022-12-22T11:59:09.638Z,100312.41
2022-12-22T12:01:55.242Z,100308.66
2022-12-22T12:04:38.704Z,100307.47
2022-12-22T12:07:25.947Z,100316.41
2022-12-22T12:10:04.506Z,100310.94
2022-12-22T12:12:42.321Z,100313.69
2022-12-22T12:15:23.734Z,100310.94
2022-12-22T12:18:13.994Z,100319.16
2022-12-22T12:20:52.257Z,100322.91
2022-12-22T12:23:41.069Z,100320.16
2022-12-22T12:26:16.851Z,100322.91
2022-12-22T12:28:53.930Z,100324.78
2022-12-22T12:31:26.756Z,100337.47
2022-12-22T12:33:59.196Z,100336.44
2022-12-22T12:36:40.261Z,100333.16
2022-12-22T12:39:18.024Z,100326.50
2022-12-22T12:41:59.219Z,100320.03
2022-12-22T12:44:31.551Z,100322.91
2022-12-22T12:47:08.956Z,100319.47
2022-12-22T12:50:25.121Z,100328.41
2022-12-22T12:53:09.826Z,100316.16
2022-12-22T12:56:02.033Z,100319.19
2022-12-22T12:58:50.433Z,100314.72
2022-12-22T13:01:55.927Z,100316.75
2022-12-22T13:04:57.379Z,100319.78
2022-12-22T13:07:58.528Z,100311.56
2022-12-22T13:10:28.010Z,100308.84
2022-12-22T13:12:58.013Z,100301.50
2022-12-22T13:15:31.349Z,100311.28
2022-12-22T13:17:59.751Z,100312.44
2022-12-22T13:20:32.247Z,100315.91
2022-12-22T13:23:02.762Z,100318.06
2022-12-22T13:25:42.167Z,100317.78
2022-12-22T13:28:16.095Z,100317.06
2022-12-22T13:30:48.617Z,100317.19
2022-12-22T13:33:18.704Z,100318.53
2022-12-22T13:35:53.425Z,100318.53
2022-12-22T13:38:30.216Z,100318.66
2022-12-22T13:41:01.038Z,100327.00
2022-12-22T13:43:31.717Z,100323.56
2022-12-22T13:46:02.259Z,100327.47
2022-12-22T13:48:43.560Z,100330.22
2022-12-22T13:51:18.919Z,100337.97
2022-12-22T13:54:08.241Z,100342.44
2022-12-22T13:56:40.751Z,100335.38
2022-12-22T13:59:28.948Z,100331.97
2022-12-22T14:02:02.350Z,100333.81
2022-12-22T14:04:31.578Z,100332.19
2022-12-22T14:07:11.407Z,100341.16
2022-12-22T14:09:43.617Z,100327.00
2022-12-22T14:12:16.558Z,100335.22
2022-12-22T14:14:46.570Z,100336.09
2022-12-22T14:17:23.513Z,100321.53
2022-12-22T14:19:53.681Z,100329.06
2022-12-22T14:22:26.886Z,100334.53
2022-12-22T14:24:57.996Z,100333.66
2022-12-22T14:27:34.310Z,100343.75
2022-12-22T14:30:05.500Z,100334.81
2022-12-22T14:32:37.764Z,100341.16
2022-12-22T14:35:16.201Z,100339.56
2022-12-22T14:37:44.045Z,100323.28
2022-12-22T14:40:28.942Z,100333.94
2022-12-22T14:42:59.933Z,100331.34
2022-12-22T14:45:27.919Z,100336.97
2022-12-22T14:47:57.227Z,100329.63
2022-12-22T14:50:27.554Z,100329.63
2022-12-22T14:52:56.985Z,100319.72
2022-12-22T14:55:29.937Z,100315.06
2022-12-22T14:58:02.510Z,100314.38
2022-12-22T15:00:35.886Z,100310.06
2022-12-22T15:03:06.463Z,100304.59
2022-12-22T15:05:37.986Z,100299.13
2022-12-22T15:08:09.280Z,100293.78
2022-12-22T15:10:43.917Z,100290.31
2022-12-22T15:13:19.994Z,100279.25
2022-12-22T15:15:47.888Z,100285.03
2022-12-22T15:18:16.755Z,100284.03
2022-12-22T15:20:44.733Z,100281.44
2022-12-22T15:23:17.420Z,100282.13
2022-12-22T15:25:45.228Z,100278.44
2022-12-22T15:28:14.453Z,100269.91
2022-12-22T15:30:42.947Z,100264.28
2022-12-22T15:33:15.268Z,100254.06
2022-12-22T15:35:44.274Z,100259.84
2022-12-22T15:38:15.918Z,100253.34
2022-12-22T15:40:44.666Z,100251.78
2022-12-22T15:43:55.081Z,100255.50
2022-12-22T15:46:03.517Z,100255.69
2022-12-22T15:48:34.103Z,100249.19
2022-12-22T15:51:03.671Z,100252.94
2022-12-22T15:53:33.932Z,100255.69
2022-12-22T15:56:02.285Z,100250.34
2022-12-22T15:58:35.620Z,100253.09
2022-12-22T16:01:03.606Z,100234.22
2022-12-22T16:03:31.651Z,100244.31
2022-12-22T16:06:00.588Z,100237.25
2022-12-22T16:08:32.083Z,100233.69
2022-12-22T16:11:00.510Z,100231.22
2022-12-22T16:13:29.459Z,100221.28
2022-12-22T16:15:59.735Z,100219.56
2022-12-22T16:18:27.844Z,100215.41
2022-12-22T16:20:56.661Z,100218.16
2022-12-22T16:23:27.011Z,100218.28
2022-12-22T16:26:01.797Z,100217.56
2022-12-22T16:28:30.885Z,100208.81
2022-12-22T16:31:00.941Z,100202.31
2022-12-22T16:33:29.008Z,100199.03
2022-12-22T16:35:56.814Z,100190.97
2022-12-22T16:38:24.837Z,100199.31
2022-12-22T16:40:54.315Z,100191.09
2022-12-22T16:46:17.651Z,100178.91
2022-12-22T16:48:48.851Z,100172.72
2022-12-22T16:51:20.254Z,100166.69
2022-12-22T16:53:48.190Z,100174.31
2022-12-22T16:56:19.101Z,100165.25
2022-12-22T16:58:47.325Z,100163.66
2022-12-22T17:01:27.194Z,100168.13
2022-12-22T17:03:55.937Z,100167.56
2022-12-22T17:06:23.960Z,100160.50
2022-12-22T17:08:52.077Z,100164.25
2022-12-22T17:11:23.550Z,100170.44
2022-12-22T17:13:54.454Z,100167.84
2022-12-22T17:16:24.238Z,100164.25
2022-12-22T17:18:52.173Z,100163.53
2022-12-22T17:21:21.730Z,100162.53
2022-12-22T17:23:52.247Z,100153.59
2022-12-22T17:26:23.901Z,100146.25
2022-12-22T17:28:54.832Z,100148.31
2022-12-22T17:31:24.302Z,100148.31
2022-12-22T17:33:52.775Z,100142.97
2022-12-22T17:36:29.210Z,100145.56
2022-12-22T17:38:57.378Z,100137.66
2022-12-22T17:41:25.222Z,100131.34
2022-12-22T17:43:53.328Z,100130.47
2022-12-22T17:46:22.715Z,100129.47
2022-12-22T17:48:52.078Z,100115.06
2022-12-22T17:51:23.850Z,100114.22
2022-12-22T17:53:52.533Z,100106.34
2022-12-22T17:56:22.543Z,100094.41
2022-12-22T17:58:50.945Z,100089.94
2022-12-22T18:01:28.033Z,100081.56
2022-12-22T18:03:57.858Z,100081.75
2022-12-22T18:06:30.626Z,100078.00
2022-12-22T18:08:58.968Z,100079.28
2022-12-22T18:11:27.461Z,100076.44
2022-12-22T18:13:57.211Z,100080.03
2022-12-22T18:16:25.461Z,100073.84
2022-12-22T18:18:53.393Z,100061.03
2022-12-22T18:21:24.886Z,100058.16
2022-12-22T18:23:53.349Z,100051.84
2022-12-22T18:26:23.439Z,100051.69
2022-12-22T18:28:51.739Z,100054.56
2022-12-22T18:31:20.179Z,100059.03
2022-12-22T18:33:48.185Z,100056.28
2022-12-22T18:36:18.852Z,100064.34
2022-12-22T18:38:49.508Z,100051.53
2022-12-22T18:41:21.889Z,100049.66
2022-12-22T18:43:50.390Z,100042.63
2022-12-22T18:46:18.493Z,100039.75
2022-12-22T18:48:48.153Z,100045.06
2022-12-22T18:51:21.423Z,100033.97
2022-12-22T18:53:52.362Z,100035.84
2022-12-22T18:56:20.672Z,100033.97
2022-12-22T18:58:48.687Z,100033.13
2022-12-22T19:01:23.143Z,100030.09
2022-12-22T19:03:53.336Z,100027.50
2022-12-22T19:06:22.653Z,100026.66
2022-12-22T19:08:52.334Z,100027.50
2022-12-22T19:11:25.703Z,100023.91
2022-12-22T19:13:53.732Z,100019.59
2022-12-22T19:16:25.938Z,100021.34
2022-12-22T19:18:53.842Z,100013.47
2022-12-22T19:21:22.124Z,100016.88
2022-12-22T19:23:51.321Z,100019.47
2022-12-22T19:26:22.776Z,100018.59
2022-12-22T19:28:54.300Z,100011.28
2022-12-22T19:31:25.734Z,100008.41
2022-12-22T19:33:54.395Z,100008.41
2022-12-22T19:36:26.290Z,100002.94
2022-12-22T19:39:05.781Z,99997.59
2022-12-22T19:41:43.177Z,99998.19
2022-12-22T19:44:20.359Z,100000.06
2022-12-22T19:46:48.903Z,100007.66
2022-12-22T19:49:18.515Z,100005.81
2022-12-22T19:51:46.609Z,100012.13
2022-12-22T19:54:16.459Z,100003.78
2022-12-22T19:56:47.518Z,100008.41
2022-12-22T19:59:28.135Z,100010.13
2022-12-22T20:01:59.498Z,100007.66
2022-12-22T20:04:27.491Z,100005.81
2022-12-22T20:06:55.396Z,100001.34
2022-12-22T20:09:24.549Z,100002.94
2022-12-22T20:11:52.416Z,100005.81
2022-12-22T20:14:20.652Z,100003.06
2022-12-22T20:16:48.610Z,99996.75
2022-12-22T20:19:17.128Z,99997.59
2022-12-22T20:21:45.456Z,99998.34
2022-12-22T20:24:20.174Z,99997.31
2022-12-22T20:26:54.145Z,99993.72
2022-12-22T20:29:23.633Z,100000.06
2022-12-22T20:31:51.453Z,99998.19
2022-12-22T20:34:19.414Z,99989.84
2022-12-22T20:36:47.326Z,99994.31
2022-12-22T20:39:18.796Z,99985.94
2022-12-22T20:41:52.554Z,99984.06
2022-12-22T20:44:22.967Z,99990.25
2022-12-22T20:46:50.875Z,99990.25
2022-12-22T20:49:18.683Z,99991.97
2022-12-22T20:51:46.650Z,99984.63
2022-12-22T20:54:14.851Z,99990.81
2022-12-22T20:56:44.595Z,100002.44
2022-12-22T20:59:15.829Z,100000.56
2022-12-22T21:01:45.850Z,100005.03
2022-12-22T21:04:14.948Z,99998.69
2022-12-22T21:06:47.873Z,100008.47
2022-12-22T21:09:16.197Z,100008.28
2022-12-22T21:11:44.213Z,100010.63
2022-12-22T21:14:13.176Z,100005.75
2022-12-22T21:16:42.226Z,99998.41
2022-12-22T21:19:17.212Z,99997.25
2022-12-22T21:21:45.044Z,99989.19
2022-12-22T21:24:12.838Z,99988.19
2022-12-22T21:26:43.792Z,99997.09
2022-12-22T21:29:16.579Z,99991.63
2022-12-22T21:31:44.291Z,99984.09
2022-12-22T21:34:13.434Z,99997.41
2022-12-22T21:36:44.517Z,99982.41
2022-12-22T21:39:23.273Z,99992.19
2022-12-22T21:42:04.548Z,99986.88
2022-12-22T21:44:34.046Z,99993.06
2022-12-22T21:47:02.735Z,99997.66
2022-12-22T21:49:33.684Z,99990.16
2022-12-22T21:52:01.736Z,99989.31
2022-12-22T21:54:29.651Z,99987.44
2022-12-22T21:56:57.608Z,99989.16
2022-12-22T21:59:25.389Z,99988.13
2022-12-22T22:01:53.750Z,99993.59
2022-12-22T22:04:22.701Z,99986.09
2022-12-22T22:06:52.017Z,99992.28
2022-12-22T22:09:19.932Z,99993.31
2022-12-22T22:12:05.689Z,99988.69
2022-12-22T22:14:33.571Z,99992.44
2022-12-22T22:17:01.360Z,99991.28
2022-12-22T22:19:29.249Z,99988.56
2022-12-22T22:21:58.376Z,99990.13
2022-12-22T22:24:26.283Z,99991.13
2022-12-22T22:26:55.867Z,99990.97
2022-12-22T22:29:23.908Z,99993.69
2022-12-22T22:31:51.814Z,99984.66
2022-12-22T22:34:19.767Z,99992.88
2022-12-22T22:36:47.712Z,100004.47
2022-12-22T22:39:16.992Z,99996.13
2022-12-22T22:41:44.798Z,99996.28
2022-12-22T22:44:13.190Z,99998.00
2022-12-22T22:46:41.654Z,99997.00
2022-12-22T22:49:09.800Z,99994.25
2022-12-22T22:51:37.642Z,99989.66
2022-12-22T22:54:05.719Z,99993.25
2022-12-22T22:56:35.456Z,99986.78
2022-12-22T22:59:03.735Z,99985.06
2022-12-22T23:01:31.968Z,99982.19
2022-12-22T23:04:00.014Z,99978.56
2022-12-22T23:06:27.866Z,99984.03
2022-12-22T23:08:55.732Z,99986.78
2022-12-22T23:11:23.695Z,99986.78
2022-12-22T23:13:54.756Z,99977.56
2022-12-22T23:16:24.428Z,99984.03
2022-12-22T23:18:53.943Z,99980.31
2022-12-22T23:21:23.378Z,99976.72
2022-12-22T23:23:56.090Z,99975.69
2022-12-22T23:26:24.443Z,99982.31
2022-12-22T23:28:59.169Z,99974.66
2022-12-22T23:31:30.895Z,99985.91
2022-12-22T23:33:58.758Z,99986.78
2022-12-22T23:36:26.712Z,99981.31
2022-12-22T23:38:54.728Z,99972.97
2022-12-22T23:41:22.674Z,99979.44
2022-12-22T23:43:50.796Z,99983.91
2022-12-22T23:46:20.158Z,99980.13
2022-12-22T23:48:51.779Z,99984.59
2022-12-22T23:51:20.478Z,99986.63
2022-12-22T23:53:48.278Z,99985.78
2022-12-22T23:56:16.507Z,99992.09
2022-12-22T23:58:46.201Z,99997.56
